sensor_id;sensor_type;location;lat;lon;timestamp;P1;P2;P0
70197;PMS5003;57582;-34.876;138.628;2023-01-15T00:02:41;1.73;1.30;0.17
70197;PMS5003;57582;-34.876;138.628;2023-01-15T00:05:41;1.80;1.80;0.00
70197;PMS5003;57582;-34.876;138.628;2023-01-15T00:08:42;1.60;1.20;0.03
70197;PMS5003;57582;-34.876;138.628;2023-01-15T00:11:42;2.40;0.57;0.00
70197;PMS5003;57582;-34.876;138.628;2023-01-15T00:14:41;2.90;0.53;0.00
70197;PMS5003;57582;-34.876;138.628;2023-01-15T00:17:41;2.30;0.93;0.40
70197;PMS5003;57582;-34.876;138.628;2023-01-15T00:20:41;0.40;0.27;0.00
70197;PMS5003;57582;-34.876;138.628;2023-01-15T00:23:41;1.57;0.57;0.00
70197;PMS5003;57582;-34.876;138.628;2023-01-15T00:26:41;2.87;1.33;0.10
70197;PMS5003;57582;-34.876;138.628;2023-01-15T00:29:41;3.77;2.20;0.47
70197;PMS5003;57582;-34.876;138.628;2023-01-15T00:32:43;2.30;1.37;0.00
70197;PMS5003;57582;-34.876;138.628;2023-01-15T00:35:41;1.37;1.27;0.00
70197;PMS5003;57582;-34.876;138.628;2023-01-15T00:38:41;2.40;1.20;0.03
70197;PMS5003;57582;-34.876;138.628;2023-01-15T00:41:41;1.43;0.53;0.03
70197;PMS5003;57582;-34.876;138.628;2023-01-15T00:44:41;3.17;1.13;0.00
70197;PMS5003;57582;-34.876;138.628;2023-01-15T00:47:43;0.80;0.80;0.00
70197;PMS5003;57582;-34.876;138.628;2023-01-15T00:50:41;3.57;1.00;0.00
70197;PMS5003;57582;-34.876;138.628;2023-01-15T00:53:41;2.23;1.40;0.07
70197;PMS5003;57582;-34.876;138.628;2023-01-15T00:56:41;3.27;0.53;0.10
70197;PMS5003;57582;-34.876;138.628;2023-01-15T00:59:41;0.87;0.57;0.00
70197;PMS5003;57582;-34.876;138.628;2023-01-15T01:02:41;2.17;0.90;0.00
70197;PMS5003;57582;-34.876;138.628;2023-01-15T01:05:41;1.37;1.00;0.23
70197;PMS5003;57582;-34.876;138.628;2023-01-15T01:08:43;1.57;1.57;0.03
70197;PMS5003;57582;-34.876;138.628;2023-01-15T01:11:41;1.13;1.13;0.00
70197;PMS5003;57582;-34.876;138.628;2023-01-15T01:14:41;3.43;1.07;0.00
70197;PMS5003;57582;-34.876;138.628;2023-01-15T01:17:41;3.13;1.73;0.43
70197;PMS5003;57582;-34.876;138.628;2023-01-15T01:20:41;2.47;1.07;0.00
70197;PMS5003;57582;-34.876;138.628;2023-01-15T01:23:41;3.27;1.23;0.30
70197;PMS5003;57582;-34.876;138.628;2023-01-15T01:26:42;1.80;0.70;0.23
70197;PMS5003;57582;-34.876;138.628;2023-01-15T01:29:41;1.60;1.17;0.00
70197;PMS5003;57582;-34.876;138.628;2023-01-15T01:32:43;2.43;1.40;0.57
70197;PMS5003;57582;-34.876;138.628;2023-01-15T01:35:46;2.63;1.43;0.00
70197;PMS5003;57582;-34.876;138.628;2023-01-15T01:38:41;1.67;0.57;0.03
70197;PMS5003;57582;-34.876;138.628;2023-01-15T01:41:41;7.87;4.20;0.93
70197;PMS5003;57582;-34.876;138.628;2023-01-15T01:47:41;5.93;3.63;1.20
70197;PMS5003;57582;-34.876;138.628;2023-01-15T01:50:41;7.03;3.97;1.93
70197;PMS5003;57582;-34.876;138.628;2023-01-15T01:53:41;6.97;4.27;2.33
70197;PMS5003;57582;-34.876;138.628;2023-01-15T01:56:42;5.40;2.17;0.13
70197;PMS5003;57582;-34.876;138.628;2023-01-15T01:59:41;0.73;0.20;0.00
70197;PMS5003;57582;-34.876;138.628;2023-01-15T02:02:44;3.30;1.23;0.00
70197;PMS5003;57582;-34.876;138.628;2023-01-15T02:05:46;2.33;0.43;0.00
70197;PMS5003;57582;-34.876;138.628;2023-01-15T02:08:42;1.43;0.10;0.00
70197;PMS5003;57582;-34.876;138.628;2023-01-15T02:11:41;1.80;1.17;0.00
70197;PMS5003;57582;-34.876;138.628;2023-01-15T02:14:49;1.97;0.60;0.00
70197;PMS5003;57582;-34.876;138.628;2023-01-15T02:17:43;2.63;1.10;0.13
70197;PMS5003;57582;-34.876;138.628;2023-01-15T02:20:49;2.87;1.37;0.00
70197;PMS5003;57582;-34.876;138.628;2023-01-15T02:27:00;2.33;1.13;0.00
70197;PMS5003;57582;-34.876;138.628;2023-01-15T02:29:47;3.13;3.00;1.33
70197;PMS5003;57582;-34.876;138.628;2023-01-15T02:32:49;5.33;1.97;0.70
70197;PMS5003;57582;-34.876;138.628;2023-01-15T02:35:47;3.93;2.10;0.57
70197;PMS5003;57582;-34.876;138.628;2023-01-15T02:38:46;4.37;2.90;1.10
70197;PMS5003;57582;-34.876;138.628;2023-01-15T02:41:45;0.97;0.97;0.30
70197;PMS5003;57582;-34.876;138.628;2023-01-15T02:44:46;1.77;1.23;0.33
70197;PMS5003;57582;-34.876;138.628;2023-01-15T02:47:42;1.40;1.00;0.07
70197;PMS5003;57582;-34.876;138.628;2023-01-15T02:50:44;3.17;1.70;0.57
70197;PMS5003;57582;-34.876;138.628;2023-01-15T02:53:44;4.40;2.60;0.73
70197;PMS5003;57582;-34.876;138.628;2023-01-15T02:56:44;0.97;0.97;0.17
70197;PMS5003;57582;-34.876;138.628;2023-01-15T02:59:46;4.00;1.30;0.00
70197;PMS5003;57582;-34.876;138.628;2023-01-15T03:02:45;2.07;0.77;0.00
70197;PMS5003;57582;-34.876;138.628;2023-01-15T03:05:47;1.70;1.17;0.53
70197;PMS5003;57582;-34.876;138.628;2023-01-15T03:08:42;0.83;0.57;0.00
70197;PMS5003;57582;-34.876;138.628;2023-01-15T03:11:46;2.57;1.00;0.00
70197;PMS5003;57582;-34.876;138.628;2023-01-15T03:17:49;2.07;1.40;0.00
70197;PMS5003;57582;-34.876;138.628;2023-01-15T03:20:49;1.80;1.00;0.00
70197;PMS5003;57582;-34.876;138.628;2023-01-15T03:23:45;3.23;1.37;0.07
70197;PMS5003;57582;-34.876;138.628;2023-01-15T03:26:41;3.77;2.47;0.00
70197;PMS5003;57582;-34.876;138.628;2023-01-15T03:29:45;2.30;0.43;0.07
70197;PMS5003;57582;-34.876;138.628;2023-01-15T03:32:41;1.53;0.60;0.17
70197;PMS5003;57582;-34.876;138.628;2023-01-15T03:35:49;0.63;0.57;0.00
70197;PMS5003;57582;-34.876;138.628;2023-01-15T03:38:42;2.10;0.17;0.00
70197;PMS5003;57582;-34.876;138.628;2023-01-15T03:41:55;3.70;1.17;0.03
70197;PMS5003;57582;-34.876;138.628;2023-01-15T03:47:49;1.33;1.10;0.00
70197;PMS5003;57582;-34.876;138.628;2023-01-15T03:50:47;5.57;3.87;0.83
70197;PMS5003;57582;-34.876;138.628;2023-01-15T03:53:47;4.27;2.63;0.83
70197;PMS5003;57582;-34.876;138.628;2023-01-15T03:56:52;2.07;1.43;0.00
70197;PMS5003;57582;-34.876;138.628;2023-01-15T03:59:50;1.00;0.47;0.37
70197;PMS5003;57582;-34.876;138.628;2023-01-15T04:02:43;4.17;1.20;0.20
70197;PMS5003;57582;-34.876;138.628;2023-01-15T04:05:43;1.20;0.77;0.10
70197;PMS5003;57582;-34.876;138.628;2023-01-15T04:08:44;2.20;0.67;0.00
70197;PMS5003;57582;-34.876;138.628;2023-01-15T04:11:41;2.07;0.97;0.00
70197;PMS5003;57582;-34.876;138.628;2023-01-15T04:14:41;2.40;1.47;0.03
70197;PMS5003;57582;-34.876;138.628;2023-01-15T04:17:41;3.00;1.47;0.00
70197;PMS5003;57582;-34.876;138.628;2023-01-15T04:20:42;5.80;1.40;0.00
70197;PMS5003;57582;-34.876;138.628;2023-01-15T04:23:41;3.30;0.97;0.23
70197;PMS5003;57582;-34.876;138.628;2023-01-15T04:26:41;2.27;1.53;0.20
70197;PMS5003;57582;-34.876;138.628;2023-01-15T04:29:41;1.83;1.53;0.00
70197;PMS5003;57582;-34.876;138.628;2023-01-15T04:32:42;3.30;2.30;0.53
70197;PMS5003;57582;-34.876;138.628;2023-01-15T04:35:41;2.80;1.37;0.13
70197;PMS5003;57582;-34.876;138.628;2023-01-15T04:38:42;1.33;0.97;0.03
70197;PMS5003;57582;-34.876;138.628;2023-01-15T04:41:41;1.93;1.40;0.33
70197;PMS5003;57582;-34.876;138.628;2023-01-15T04:44:42;3.07;2.37;0.00
70197;PMS5003;57582;-34.876;138.628;2023-01-15T04:47:41;1.97;0.60;0.00
70197;PMS5003;57582;-34.876;138.628;2023-01-15T04:50:43;1.63;0.77;0.10
70197;PMS5003;57582;-34.876;138.628;2023-01-15T04:53:41;2.03;1.37;0.00
70197;PMS5003;57582;-34.876;138.628;2023-01-15T04:56:45;2.60;2.13;0.20
70197;PMS5003;57582;-34.876;138.628;2023-01-15T04:59:41;3.87;1.57;0.07
70197;PMS5003;57582;-34.876;138.628;2023-01-15T05:02:42;2.43;0.67;0.00
70197;PMS5003;57582;-34.876;138.628;2023-01-15T05:05:41;2.00;1.03;0.00
70197;PMS5003;57582;-34.876;138.628;2023-01-15T05:08:44;1.67;0.33;0.00
70197;PMS5003;57582;-34.876;138.628;2023-01-15T05:11:41;3.67;1.00;0.00
70197;PMS5003;57582;-34.876;138.628;2023-01-15T05:14:41;1.53;1.00;0.00
70197;PMS5003;57582;-34.876;138.628;2023-01-15T05:17:41;2.17;1.50;0.07
70197;PMS5003;57582;-34.876;138.628;2023-01-15T05:20:42;1.47;1.13;0.00
70197;PMS5003;57582;-34.876;138.628;2023-01-15T05:23:41;4.57;0.87;0.07
70197;PMS5003;57582;-34.876;138.628;2023-01-15T05:26:42;0.37;0.00;0.00
70197;PMS5003;57582;-34.876;138.628;2023-01-15T05:29:41;6.07;3.93;0.57
70197;PMS5003;57582;-34.876;138.628;2023-01-15T05:32:41;3.63;1.50;0.37
70197;PMS5003;57582;-34.876;138.628;2023-01-15T05:35:41;3.47;0.73;0.00
70197;PMS5003;57582;-34.876;138.628;2023-01-15T05:38:42;2.67;0.30;0.00
70197;PMS5003;57582;-34.876;138.628;2023-01-15T05:41:41;2.53;1.37;0.37
70197;PMS5003;57582;-34.876;138.628;2023-01-15T05:44:41;3.43;2.30;0.00
70197;PMS5003;57582;-34.876;138.628;2023-01-15T05:47:41;2.97;2.03;0.20
70197;PMS5003;57582;-34.876;138.628;2023-01-15T05:50:41;2.57;1.17;0.00
70197;PMS5003;57582;-34.876;138.628;2023-01-15T05:53:41;1.17;0.60;0.10
70197;PMS5003;57582;-34.876;138.628;2023-01-15T05:56:42;1.07;1.07;0.00
70197;PMS5003;57582;-34.876;138.628;2023-01-15T05:59:41;3.20;1.37;0.30
70197;PMS5003;57582;-34.876;138.628;2023-01-15T06:02:41;3.53;1.17;0.00
70197;PMS5003;57582;-34.876;138.628;2023-01-15T06:05:41;4.67;1.97;0.00
70197;PMS5003;57582;-34.876;138.628;2023-01-15T06:08:42;2.33;1.43;0.33
70197;PMS5003;57582;-34.876;138.628;2023-01-15T06:11:42;1.97;1.10;0.07
70197;PMS5003;57582;-34.876;138.628;2023-01-15T06:14:42;3.07;2.17;0.00
70197;PMS5003;57582;-34.876;138.628;2023-01-15T06:17:42;3.07;1.37;0.43
70197;PMS5003;57582;-34.876;138.628;2023-01-15T06:20:42;4.03;2.00;0.00
70197;PMS5003;57582;-34.876;138.628;2023-01-15T06:23:42;3.13;1.77;0.40
70197;PMS5003;57582;-34.876;138.628;2023-01-15T06:26:42;5.13;2.10;0.23
70197;PMS5003;57582;-34.876;138.628;2023-01-15T06:29:41;5.03;2.43;0.63
70197;PMS5003;57582;-34.876;138.628;2023-01-15T06:32:42;1.73;1.30;0.20
70197;PMS5003;57582;-34.876;138.628;2023-01-15T06:35:41;3.07;1.00;0.23
70197;PMS5003;57582;-34.876;138.628;2023-01-15T06:38:42;4.17;1.33;0.00
70197;PMS5003;57582;-34.876;138.628;2023-01-15T06:41:41;3.20;2.67;0.37
70197;PMS5003;57582;-34.876;138.628;2023-01-15T06:44:42;2.33;1.47;0.47
70197;PMS5003;57582;-34.876;138.628;2023-01-15T06:47:42;2.37;1.10;0.03
70197;PMS5003;57582;-34.876;138.628;2023-01-15T06:50:42;3.43;2.47;0.30
70197;PMS5003;57582;-34.876;138.628;2023-01-15T06:53:41;4.87;3.33;0.67
70197;PMS5003;57582;-34.876;138.628;2023-01-15T06:56:42;2.33;1.40;0.53
70197;PMS5003;57582;-34.876;138.628;2023-01-15T06:59:41;2.73;1.87;0.33
70197;PMS5003;57582;-34.876;138.628;2023-01-15T07:02:42;4.00;2.37;0.30
70197;PMS5003;57582;-34.876;138.628;2023-01-15T07:05:41;1.43;1.20;0.00
70197;PMS5003;57582;-34.876;138.628;2023-01-15T07:08:42;2.57;1.33;0.00
70197;PMS5003;57582;-34.876;138.628;2023-01-15T07:11:41;3.57;1.40;0.30
70197;PMS5003;57582;-34.876;138.628;2023-01-15T07:14:42;5.53;3.20;0.17
70197;PMS5003;57582;-34.876;138.628;2023-01-15T07:17:41;4.73;2.93;0.80
70197;PMS5003;57582;-34.876;138.628;2023-01-15T07:20:42;1.40;1.07;0.00
70197;PMS5003;57582;-34.876;138.628;2023-01-15T07:23:41;2.10;0.53;0.00
70197;PMS5003;57582;-34.876;138.628;2023-01-15T07:26:43;3.77;2.07;0.13
70197;PMS5003;57582;-34.876;138.628;2023-01-15T07:29:41;4.10;2.57;0.83
70197;PMS5003;57582;-34.876;138.628;2023-01-15T07:32:42;3.07;2.03;0.30
70197;PMS5003;57582;-34.876;138.628;2023-01-15T07:35:42;3.00;2.00;0.53
70197;PMS5003;57582;-34.876;138.628;2023-01-15T07:38:42;2.10;1.70;0.10
70197;PMS5003;57582;-34.876;138.628;2023-01-15T07:41:42;7.37;3.90;1.23
70197;PMS5003;57582;-34.876;138.628;2023-01-15T07:44:42;1.80;1.77;0.87
70197;PMS5003;57582;-34.876;138.628;2023-01-15T07:47:41;7.33;2.60;0.43
70197;PMS5003;57582;-34.876;138.628;2023-01-15T07:50:42;7.90;5.07;0.87
70197;PMS5003;57582;-34.876;138.628;2023-01-15T07:53:42;4.27;3.00;0.53
70197;PMS5003;57582;-34.876;138.628;2023-01-15T07:56:42;3.57;3.10;0.83
70197;PMS5003;57582;-34.876;138.628;2023-01-15T07:59:41;2.70;1.53;0.00
70197;PMS5003;57582;-34.876;138.628;2023-01-15T08:02:42;2.87;2.00;0.70
70197;PMS5003;57582;-34.876;138.628;2023-01-15T08:05:41;4.97;3.23;0.07
70197;PMS5003;57582;-34.876;138.628;2023-01-15T08:08:42;3.93;1.73;0.30
70197;PMS5003;57582;-34.876;138.628;2023-01-15T08:11:41;3.20;2.83;0.53
70197;PMS5003;57582;-34.876;138.628;2023-01-15T08:14:43;2.57;2.03;0.60
70197;PMS5003;57582;-34.876;138.628;2023-01-15T08:17:45;5.10;2.47;0.77
70197;PMS5003;57582;-34.876;138.628;2023-01-15T08:20:42;2.40;1.80;0.87
70197;PMS5003;57582;-34.876;138.628;2023-01-15T08:23:42;2.63;1.87;0.33
70197;PMS5003;57582;-34.876;138.628;2023-01-15T08:26:42;3.57;1.63;0.33
70197;PMS5003;57582;-34.876;138.628;2023-01-15T08:29:41;8.53;2.73;0.67
70197;PMS5003;57582;-34.876;138.628;2023-01-15T08:32:42;4.07;2.03;0.37
70197;PMS5003;57582;-34.876;138.628;2023-01-15T08:35:41;3.00;2.77;0.83
70197;PMS5003;57582;-34.876;138.628;2023-01-15T08:38:42;3.70;2.33;0.23
70197;PMS5003;57582;-34.876;138.628;2023-01-15T08:41:41;2.37;1.47;0.17
70197;PMS5003;57582;-34.876;138.628;2023-01-15T08:44:42;3.67;2.37;0.77
70197;PMS5003;57582;-34.876;138.628;2023-01-15T08:47:41;5.70;2.20;0.97
70197;PMS5003;57582;-34.876;138.628;2023-01-15T08:50:43;4.60;2.33;0.90
70197;PMS5003;57582;-34.876;138.628;2023-01-15T08:53:41;5.83;1.80;1.00
70197;PMS5003;57582;-34.876;138.628;2023-01-15T08:56:42;4.47;2.60;0.73
70197;PMS5003;57582;-34.876;138.628;2023-01-15T08:59:42;3.97;2.33;0.70
70197;PMS5003;57582;-34.876;138.628;2023-01-15T09:02:42;2.63;1.30;0.13
70197;PMS5003;57582;-34.876;138.628;2023-01-15T09:05:42;3.73;3.00;0.77
70197;PMS5003;57582;-34.876;138.628;2023-01-15T09:08:42;3.03;2.33;0.60
70197;PMS5003;57582;-34.876;138.628;2023-01-15T09:11:42;2.00;1.50;0.53
70197;PMS5003;57582;-34.876;138.628;2023-01-15T09:14:42;3.07;1.87;0.00
70197;PMS5003;57582;-34.876;138.628;2023-01-15T09:17:42;3.40;2.40;1.17
70197;PMS5003;57582;-34.876;138.628;2023-01-15T09:20:43;3.23;2.07;0.40
70197;PMS5003;57582;-34.876;138.628;2023-01-15T09:23:42;5.03;2.57;0.57
70197;PMS5003;57582;-34.876;138.628;2023-01-15T09:26:42;3.33;0.90;0.37
70197;PMS5003;57582;-34.876;138.628;2023-01-15T09:29:42;3.97;1.60;0.37
70197;PMS5003;57582;-34.876;138.628;2023-01-15T09:32:42;2.63;1.37;0.40
70197;PMS5003;57582;-34.876;138.628;2023-01-15T09:35:42;8.10;2.40;0.80
70197;PMS5003;57582;-34.876;138.628;2023-01-15T09:38:42;4.43;2.10;0.80
70197;PMS5003;57582;-34.876;138.628;2023-01-15T09:44:51;3.43;2.47;0.70
70197;PMS5003;57582;-34.876;138.628;2023-01-15T09:53:49;2.23;1.80;0.20
70197;PMS5003;57582;-34.876;138.628;2023-01-15T09:56:42;4.43;2.23;0.27
70197;PMS5003;57582;-34.876;138.628;2023-01-15T09:59:46;2.53;2.53;0.33
70197;PMS5003;57582;-34.876;138.628;2023-01-15T10:02:48;2.17;2.17;0.70
70197;PMS5003;57582;-34.876;138.628;2023-01-15T10:05:47;4.47;2.23;0.87
70197;PMS5003;57582;-34.876;138.628;2023-01-15T10:08:47;3.93;1.93;0.53
70197;PMS5003;57582;-34.876;138.628;2023-01-15T10:11:46;5.27;3.70;1.33
70197;PMS5003;57582;-34.876;138.628;2023-01-15T10:17:44;7.40;4.37;1.60
70197;PMS5003;57582;-34.876;138.628;2023-01-15T10:26:59;3.67;1.13;0.13
70197;PMS5003;57582;-34.876;138.628;2023-01-15T10:29:45;5.17;2.87;1.60
70197;PMS5003;57582;-34.876;138.628;2023-01-15T10:32:49;3.97;2.13;1.20
70197;PMS5003;57582;-34.876;138.628;2023-01-15T10:36:12;3.90;1.97;0.30
70197;PMS5003;57582;-34.876;138.628;2023-01-15T10:38:52;4.03;2.40;0.40
70197;PMS5003;57582;-34.876;138.628;2023-01-15T10:47:44;4.17;2.57;0.73
70197;PMS5003;57582;-34.876;138.628;2023-01-15T10:50:43;4.57;2.77;0.23
70197;PMS5003;57582;-34.876;138.628;2023-01-15T10:53:48;3.43;1.87;0.80
70197;PMS5003;57582;-34.876;138.628;2023-01-15T10:57:17;5.27;3.70;1.30
70197;PMS5003;57582;-34.876;138.628;2023-01-15T11:02:46;5.83;3.30;0.80
70197;PMS5003;57582;-34.876;138.628;2023-01-15T11:05:42;2.27;2.27;0.53
70197;PMS5003;57582;-34.876;138.628;2023-01-15T11:08:48;2.30;1.70;0.20
70197;PMS5003;57582;-34.876;138.628;2023-01-15T11:11:47;5.00;1.93;0.97
70197;PMS5003;57582;-34.876;138.628;2023-01-15T11:14:44;5.80;3.30;1.10
70197;PMS5003;57582;-34.876;138.628;2023-01-15T11:17:43;3.60;1.97;0.40
70197;PMS5003;57582;-34.876;138.628;2023-01-15T11:20:44;4.33;2.80;1.10
70197;PMS5003;57582;-34.876;138.628;2023-01-15T11:23:42;4.00;2.60;0.67
70197;PMS5003;57582;-34.876;138.628;2023-01-15T11:26:47;4.53;2.10;1.03
70197;PMS5003;57582;-34.876;138.628;2023-01-15T11:29:43;2.13;1.57;0.63
70197;PMS5003;57582;-34.876;138.628;2023-01-15T11:32:42;2.70;2.03;0.23
70197;PMS5003;57582;-34.876;138.628;2023-01-15T11:35:49;3.80;2.43;0.93
70197;PMS5003;57582;-34.876;138.628;2023-01-15T11:38:44;5.17;3.10;1.03
70197;PMS5003;57582;-34.876;138.628;2023-01-15T11:41:42;3.83;2.70;0.90
70197;PMS5003;57582;-34.876;138.628;2023-01-15T11:44:53;5.53;2.27;0.73
70197;PMS5003;57582;-34.876;138.628;2023-01-15T11:47:51;2.43;1.20;0.40
70197;PMS5003;57582;-34.876;138.628;2023-01-15T11:50:53;3.07;2.03;0.13
70197;PMS5003;57582;-34.876;138.628;2023-01-15T11:53:48;3.23;2.33;0.33
70197;PMS5003;57582;-34.876;138.628;2023-01-15T11:56:44;2.50;1.77;0.03
70197;PMS5003;57582;-34.876;138.628;2023-01-15T11:59:47;3.87;3.07;0.50
70197;PMS5003;57582;-34.876;138.628;2023-01-15T12:02:43;3.40;1.57;0.33
70197;PMS5003;57582;-34.876;138.628;2023-01-15T12:05:53;6.07;2.63;0.00
70197;PMS5003;57582;-34.876;138.628;2023-01-15T12:08:56;3.43;1.67;0.00
70197;PMS5003;57582;-34.876;138.628;2023-01-15T12:15:10;5.37;2.40;0.43
70197;PMS5003;57582;-34.876;138.628;2023-01-15T12:21:04;3.03;2.33;0.80
70197;PMS5003;57582;-34.876;138.628;2023-01-15T12:29:47;3.70;2.00;0.13
70197;PMS5003;57582;-34.876;138.628;2023-01-15T12:32:49;5.07;3.20;0.77
70197;PMS5003;57582;-34.876;138.628;2023-01-15T12:35:48;5.67;2.97;0.60
70197;PMS5003;57582;-34.876;138.628;2023-01-15T12:39:00;3.83;1.50;0.00
70197;PMS5003;57582;-34.876;138.628;2023-01-15T12:41:45;2.90;2.07;0.50
70197;PMS5003;57582;-34.876;138.628;2023-01-15T12:50:47;2.67;2.10;0.60
70197;PMS5003;57582;-34.876;138.628;2023-01-15T12:53:46;3.37;1.60;0.30
70197;PMS5003;57582;-34.876;138.628;2023-01-15T12:59:54;2.97;1.10;0.00
70197;PMS5003;57582;-34.876;138.628;2023-01-15T13:05:49;2.83;2.27;0.90
70197;PMS5003;57582;-34.876;138.628;2023-01-15T13:08:48;4.47;2.60;0.90
70197;PMS5003;57582;-34.876;138.628;2023-01-15T13:11:42;4.83;2.00;0.23
70197;PMS5003;57582;-34.876;138.628;2023-01-15T13:14:43;6.77;3.13;0.00
70197;PMS5003;57582;-34.876;138.628;2023-01-15T13:20:46;2.40;2.07;0.13
70197;PMS5003;57582;-34.876;138.628;2023-01-15T13:32:49;4.83;1.97;0.13
70197;PMS5003;57582;-34.876;138.628;2023-01-15T13:35:53;4.20;0.83;0.10
70197;PMS5003;57582;-34.876;138.628;2023-01-15T13:38:45;5.03;1.80;0.40
70197;PMS5003;57582;-34.876;138.628;2023-01-15T13:41:47;3.73;1.57;0.23
70197;PMS5003;57582;-34.876;138.628;2023-01-15T13:44:48;3.47;2.07;0.13
70197;PMS5003;57582;-34.876;138.628;2023-01-15T13:47:48;4.17;2.60;0.73
70197;PMS5003;57582;-34.876;138.628;2023-01-15T13:50:52;4.00;2.97;1.00
70197;PMS5003;57582;-34.876;138.628;2023-01-15T13:53:45;4.77;2.83;1.00
70197;PMS5003;57582;-34.876;138.628;2023-01-15T13:56:43;3.97;3.43;1.63
70197;PMS5003;57582;-34.876;138.628;2023-01-15T13:59:43;6.57;4.60;2.10
70197;PMS5003;57582;-34.876;138.628;2023-01-15T14:02:51;6.47;5.57;3.03
70197;PMS5003;57582;-34.876;138.628;2023-01-15T14:05:55;7.50;5.53;2.73
70197;PMS5003;57582;-34.876;138.628;2023-01-15T14:08:44;10.93;4.97;2.23
70197;PMS5003;57582;-34.876;138.628;2023-01-15T14:14:52;3.40;3.40;1.00
70197;PMS5003;57582;-34.876;138.628;2023-01-15T14:26:49;6.73;5.30;3.77
70197;PMS5003;57582;-34.876;138.628;2023-01-15T14:29:49;12.90;9.00;6.07
70197;PMS5003;57582;-34.876;138.628;2023-01-15T14:32:53;13.27;8.90;5.20
70197;PMS5003;57582;-34.876;138.628;2023-01-15T14:35:45;16.83;12.07;6.43
70197;PMS5003;57582;-34.876;138.628;2023-01-15T14:38:50;13.23;10.57;6.27
70197;PMS5003;57582;-34.876;138.628;2023-01-15T14:41:42;10.13;8.77;4.90
70197;PMS5003;57582;-34.876;138.628;2023-01-15T14:44:43;16.53;12.60;7.27
70197;PMS5003;57582;-34.876;138.628;2023-01-15T14:47:48;13.93;10.00;6.17
70197;PMS5003;57582;-34.876;138.628;2023-01-15T14:50:43;12.10;9.57;6.70
70197;PMS5003;57582;-34.876;138.628;2023-01-15T14:53:47;10.57;8.93;5.23
70197;PMS5003;57582;-34.876;138.628;2023-01-15T14:56:52;9.87;8.70;4.93
70197;PMS5003;57582;-34.876;138.628;2023-01-15T14:59:50;11.87;8.90;4.67
70197;PMS5003;57582;-34.876;138.628;2023-01-15T15:02:43;9.77;7.73;4.40
70197;PMS5003;57582;-34.876;138.628;2023-01-15T15:05:44;9.70;8.10;5.03
70197;PMS5003;57582;-34.876;138.628;2023-01-15T15:08:44;8.47;7.63;4.53
70197;PMS5003;57582;-34.876;138.628;2023-01-15T15:11:46;10.97;8.20;4.83
70197;PMS5003;57582;-34.876;138.628;2023-01-15T15:14:47;13.00;8.83;5.10
70197;PMS5003;57582;-34.876;138.628;2023-01-15T15:21:09;10.30;6.43;4.17
70197;PMS5003;57582;-34.876;138.628;2023-01-15T15:26:43;11.17;7.50;3.83
70197;PMS5003;57582;-34.876;138.628;2023-01-15T15:29:42;9.77;8.43;4.83
70197;PMS5003;57582;-34.876;138.628;2023-01-15T15:32:43;11.93;7.57;4.63
70197;PMS5003;57582;-34.876;138.628;2023-01-15T15:35:47;10.43;8.63;4.17
70197;PMS5003;57582;-34.876;138.628;2023-01-15T15:38:50;7.37;6.37;4.63
70197;PMS5003;57582;-34.876;138.628;2023-01-15T15:41:46;13.27;8.57;4.53
70197;PMS5003;57582;-34.876;138.628;2023-01-15T15:44:47;7.57;7.00;4.77
70197;PMS5003;57582;-34.876;138.628;2023-01-15T15:47:42;11.23;7.30;3.73
70197;PMS5003;57582;-34.876;138.628;2023-01-15T15:50:46;9.43;4.97;3.23
70197;PMS5003;57582;-34.876;138.628;2023-01-15T15:53:42;9.43;6.10;3.73
70197;PMS5003;57582;-34.876;138.628;2023-01-15T15:57:11;9.23;7.33;4.60
70197;PMS5003;57582;-34.876;138.628;2023-01-15T15:59:47;10.93;9.10;5.80
70197;PMS5003;57582;-34.876;138.628;2023-01-15T16:02:43;10.73;8.63;5.00
70197;PMS5003;57582;-34.876;138.628;2023-01-15T16:05:52;10.57;7.70;4.53
70197;PMS5003;57582;-34.876;138.628;2023-01-15T16:08:51;9.57;8.33;4.50
70197;PMS5003;57582;-34.876;138.628;2023-01-15T16:11:42;9.30;7.93;4.67
70197;PMS5003;57582;-34.876;138.628;2023-01-15T16:14:43;5.83;5.80;4.10
70197;PMS5003;57582;-34.876;138.628;2023-01-15T16:17:43;7.00;5.93;3.83
70197;PMS5003;57582;-34.876;138.628;2023-01-15T16:20:43;9.10;7.07;3.63
70197;PMS5003;57582;-34.876;138.628;2023-01-15T16:26:48;12.97;10.00;5.53
70197;PMS5003;57582;-34.876;138.628;2023-01-15T16:29:48;10.63;8.33;5.30
70197;PMS5003;57582;-34.876;138.628;2023-01-15T16:32:43;7.53;6.13;3.77
70197;PMS5003;57582;-34.876;138.628;2023-01-15T16:35:42;12.90;8.30;4.13
70197;PMS5003;57582;-34.876;138.628;2023-01-15T16:38:47;11.27;7.57;5.03
70197;PMS5003;57582;-34.876;138.628;2023-01-15T16:41:42;10.03;8.03;4.63
70197;PMS5003;57582;-34.876;138.628;2023-01-15T16:44:53;10.50;9.13;3.97
70197;PMS5003;57582;-34.876;138.628;2023-01-15T16:48:42;11.53;10.53;6.03
70197;PMS5003;57582;-34.876;138.628;2023-01-15T16:50:43;8.77;6.40;4.03
70197;PMS5003;57582;-34.876;138.628;2023-01-15T16:53:42;6.67;5.77;3.90
70197;PMS5003;57582;-34.876;138.628;2023-01-15T17:02:44;7.60;7.33;4.73
70197;PMS5003;57582;-34.876;138.628;2023-01-15T17:05:43;10.83;7.23;4.90
70197;PMS5003;57582;-34.876;138.628;2023-01-15T17:08:47;10.90;8.63;4.73
70197;PMS5003;57582;-34.876;138.628;2023-01-15T17:11:48;8.37;7.63;4.67
70197;PMS5003;57582;-34.876;138.628;2023-01-15T17:14:43;11.97;7.10;4.77
70197;PMS5003;57582;-34.876;138.628;2023-01-15T17:17:51;12.53;8.73;3.67
70197;PMS5003;57582;-34.876;138.628;2023-01-15T17:20:43;5.10;4.23;3.53
70197;PMS5003;57582;-34.876;138.628;2023-01-15T17:23:43;10.13;8.47;5.17
70197;PMS5003;57582;-34.876;138.628;2023-01-15T17:26:43;11.40;8.30;5.37
70197;PMS5003;57582;-34.876;138.628;2023-01-15T17:29:42;10.70;7.83;5.17
70197;PMS5003;57582;-34.876;138.628;2023-01-15T17:32:43;12.40;9.83;5.67
70197;PMS5003;57582;-34.876;138.628;2023-01-15T17:35:42;11.93;9.33;5.23
70197;PMS5003;57582;-34.876;138.628;2023-01-15T17:38:43;9.17;8.07;4.23
70197;PMS5003;57582;-34.876;138.628;2023-01-15T17:41:43;10.13;8.37;5.17
70197;PMS5003;57582;-34.876;138.628;2023-01-15T17:44:45;10.30;8.93;5.87
70197;PMS5003;57582;-34.876;138.628;2023-01-15T17:47:42;10.13;9.97;6.50
70197;PMS5003;57582;-34.876;138.628;2023-01-15T17:50:43;11.73;10.40;6.87
70197;PMS5003;57582;-34.876;138.628;2023-01-15T17:53:42;10.50;8.40;5.63
70197;PMS5003;57582;-34.876;138.628;2023-01-15T17:56:43;9.97;9.17;5.77
70197;PMS5003;57582;-34.876;138.628;2023-01-15T17:59:43;11.07;8.87;6.10
70197;PMS5003;57582;-34.876;138.628;2023-01-15T18:02:43;9.43;8.53;5.53
70197;PMS5003;57582;-34.876;138.628;2023-01-15T18:05:44;11.47;8.20;5.40
70197;PMS5003;57582;-34.876;138.628;2023-01-15T18:08:47;10.00;8.77;6.27
70197;PMS5003;57582;-34.876;138.628;2023-01-15T18:11:43;9.17;7.93;5.07
70197;PMS5003;57582;-34.876;138.628;2023-01-15T18:14:43;9.20;6.77;4.83
70197;PMS5003;57582;-34.876;138.628;2023-01-15T18:17:43;8.90;7.60;5.30
70197;PMS5003;57582;-34.876;138.628;2023-01-15T18:20:44;10.00;8.00;5.40
70197;PMS5003;57582;-34.876;138.628;2023-01-15T18:23:42;10.03;9.33;6.23
70197;PMS5003;57582;-34.876;138.628;2023-01-15T18:26:43;10.83;9.97;7.03
70197;PMS5003;57582;-34.876;138.628;2023-01-15T18:29:42;9.27;9.27;6.13